createdAt,value
2023-10-03T00:00:26.448Z,99.90
2023-10-03T00:03:29.564Z,99.90
2023-10-03T00:06:34.967Z,99.90
2023-10-03T00:09:37.109Z,99.90
2023-10-03T00:12:39.510Z,99.90
2023-10-03T00:15:45.731Z,99.90
2023-10-03T00:18:47.779Z,99.90
2023-10-03T00:21:50.083Z,99.90
2023-10-03T00:24:52.522Z,99.90
2023-10-03T00:27:58.958Z,99.90
2023-10-03T00:31:01.733Z,99.90
2023-10-03T00:34:04.088Z,99.90
2023-10-03T00:37:06.407Z,99.90
2023-10-03T00:40:18.952Z,99.90
2023-10-03T00:43:21.261Z,99.90
2023-10-03T00:46:24.319Z,99.90
2023-10-03T00:49:30.095Z,99.90
2023-10-03T00:52:33.487Z,99.90
2023-10-03T00:55:39.117Z,99.90
2023-10-03T00:58:42.583Z,99.90
2023-10-03T01:01:47.721Z,99.90
2023-10-03T01:04:50.594Z,99.90
2023-10-03T01:07:53.048Z,99.90
2023-10-03T01:11:00.016Z,99.90
2023-10-03T01:14:02.215Z,99.90
2023-10-03T01:17:07.371Z,99.90
2023-10-03T01:20:24.612Z,99.90
2023-10-03T01:23:31.276Z,99.90
2023-10-03T01:26:33.698Z,99.90
2023-10-03T01:29:35.841Z,99.90
2023-10-03T01:32:52.203Z,99.90
2023-10-03T01:35:55.358Z,99.90
2023-10-03T01:38:57.508Z,99.90
2023-10-03T01:41:59.735Z,99.90
2023-10-03T01:45:01.797Z,99.90
2023-10-03T01:48:06.691Z,99.90
2023-10-03T01:51:09.900Z,99.90
2023-10-03T01:54:12.290Z,99.90
2023-10-03T01:57:14.603Z,99.90
2023-10-03T02:00:27.529Z,99.90
2023-10-03T02:03:30.882Z,99.90
2023-10-03T02:06:33.900Z,99.90
2023-10-03T02:09:36.210Z,99.90
2023-10-03T02:12:38.250Z,99.90
2023-10-03T02:15:40.686Z,99.90
2023-10-03T02:18:43.297Z,99.90
2023-10-03T02:21:47.724Z,99.90
2023-10-03T02:24:49.863Z,99.90
2023-10-03T02:27:54.392Z,99.90
2023-10-03T02:30:58.790Z,99.90
2023-10-03T02:34:03.718Z,99.90
2023-10-03T02:37:06.198Z,99.90
2023-10-03T02:40:08.983Z,99.90
2023-10-03T02:43:12.245Z,99.90
2023-10-03T02:46:14.721Z,99.90
2023-10-03T02:49:16.912Z,99.90
2023-10-03T02:52:20.026Z,99.90
2023-10-03T02:55:23.771Z,99.90
2023-10-03T02:58:26.020Z,99.90
2023-10-03T03:01:29.001Z,99.90
2023-10-03T03:04:31.170Z,99.90
2023-10-03T03:07:33.527Z,99.90
2023-10-03T03:10:36.437Z,99.90
2023-10-03T03:13:38.664Z,99.90
2023-10-03T03:16:41.708Z,99.90
2023-10-03T03:19:45.623Z,99.90
2023-10-03T03:22:52.083Z,99.90
2023-10-03T03:26:03.919Z,99.90
2023-10-03T03:29:22.537Z,99.90
2023-10-03T03:32:28.675Z,99.90
2023-10-03T03:35:39.231Z,99.90
2023-10-03T03:38:42.852Z,99.90
2023-10-03T03:41:45.524Z,99.90
2023-10-03T03:44:48.052Z,99.90
2023-10-03T03:47:53.428Z,99.90
2023-10-03T03:50:56.101Z,99.90
2023-10-03T03:54:00.917Z,99.90
2023-10-03T03:57:03.872Z,99.90
2023-10-03T04:00:15.203Z,99.90
2023-10-03T04:03:18.257Z,99.90
2023-10-03T04:06:21.450Z,99.90
2023-10-03T04:09:23.775Z,99.90
2023-10-03T04:12:26.561Z,99.90
2023-10-03T04:15:29.315Z,99.90
2023-10-03T04:18:31.711Z,99.90
2023-10-03T04:21:34.371Z,99.90
2023-10-03T04:24:36.759Z,99.90
2023-10-03T04:27:39.034Z,99.90
2023-10-03T04:30:42.581Z,99.90
2023-10-03T04:33:46.512Z,99.90
2023-10-03T04:36:49.148Z,99.90
2023-10-03T04:39:51.548Z,99.90
2023-10-03T04:42:54.789Z,99.90
2023-10-03T04:45:58.131Z,99.90
2023-10-03T04:49:02.903Z,99.90
2023-10-03T04:52:09.020Z,99.90
2023-10-03T04:55:11.469Z,99.90
2023-10-03T04:58:13.914Z,99.90
2023-10-03T05:01:16.293Z,99.90
2023-10-03T05:04:18.921Z,99.90
2023-10-03T05:07:21.048Z,99.90
2023-10-03T05:10:30.259Z,99.90
2023-10-03T05:13:32.664Z,99.90
2023-10-03T05:16:36.301Z,99.90
2023-10-03T05:19:38.632Z,99.90
2023-10-03T05:22:42.172Z,99.90
2023-10-03T05:25:44.781Z,99.90
2023-10-03T05:28:47.173Z,99.90
2023-10-03T05:31:49.453Z,99.90
2023-10-03T05:34:53.482Z,99.90
2023-10-03T05:37:56.863Z,99.90
2023-10-03T05:40:59.137Z,99.90
2023-10-03T05:44:01.428Z,99.90
2023-10-03T05:47:04.601Z,99.90
2023-10-03T05:50:08.211Z,99.90
2023-10-03T05:53:11.152Z,99.90
2023-10-03T05:56:14.271Z,99.90
2023-10-03T05:59:16.762Z,99.90
2023-10-03T06:02:18.849Z,99.90
2023-10-03T06:05:23.368Z,99.90
2023-10-03T06:08:25.812Z,99.90
2023-10-03T06:11:28.299Z,99.90
2023-10-03T06:14:30.479Z,99.90
2023-10-03T06:17:33.558Z,99.90
2023-10-03T06:20:37.136Z,99.90
2023-10-03T06:23:39.934Z,99.90
2023-10-03T06:26:46.575Z,99.90
2023-10-03T06:29:49.217Z,99.90
2023-10-03T06:32:52.531Z,99.90
2023-10-03T06:35:54.973Z,99.90
2023-10-03T06:38:59.259Z,99.90
2023-10-03T06:42:01.771Z,99.90
2023-10-03T06:45:10.935Z,99.90
2023-10-03T06:48:13.403Z,99.90
2023-10-03T06:51:18.413Z,99.90
2023-10-03T06:54:21.418Z,99.90
2023-10-03T06:57:23.965Z,99.90
2023-10-03T07:00:26.430Z,99.90
2023-10-03T07:03:28.989Z,99.90
2023-10-03T07:06:32.169Z,99.90
2023-10-03T07:09:34.252Z,99.90
2023-10-03T07:12:36.570Z,99.90
2023-10-03T07:15:40.622Z,99.90
2023-10-03T07:18:45.081Z,99.90
2023-10-03T07:21:47.297Z,99.90
2023-10-03T07:24:52.293Z,99.90
2023-10-03T07:27:54.591Z,99.90
2023-10-03T07:30:57.333Z,99.90
2023-10-03T07:33:59.709Z,99.90
2023-10-03T07:37:02.043Z,99.90
2023-10-03T07:40:06.904Z,99.90
2023-10-03T07:43:13.534Z,99.90
2023-10-03T07:46:22.200Z,99.90
2023-10-03T07:49:24.454Z,99.90
2023-10-03T07:52:28.550Z,99.90
2023-10-03T07:55:34.236Z,99.90
2023-10-03T07:58:36.511Z,99.90
2023-10-03T08:01:57.496Z,99.80
2023-10-03T08:05:02.168Z,97.20
2023-10-03T08:08:05.693Z,95.10
2023-10-03T08:11:08.820Z,93.60
2023-10-03T08:14:14.795Z,92.00
2023-10-03T08:17:17.324Z,89.30
2023-10-03T08:20:20.101Z,89.50
2023-10-03T08:23:22.470Z,90.30
2023-10-03T08:26:29.371Z,90.20
2023-10-03T08:29:33.499Z,87.40
2023-10-03T08:32:41.357Z,88.40
2023-10-03T08:35:44.163Z,83.70
2023-10-03T08:38:46.360Z,85.10
2023-10-03T08:41:58.847Z,84.80
2023-10-03T08:45:18.043Z,87.60
2023-10-03T08:48:35.678Z,85.10
2023-10-03T08:51:38.300Z,83.20
2023-10-03T08:54:43.082Z,84.60
2023-10-03T08:57:49.239Z,81.70
2023-10-03T09:00:51.801Z,79.70
2023-10-03T09:04:00.018Z,81.30
2023-10-03T09:07:02.176Z,80.80
2023-10-03T09:10:11.775Z,81.40
2023-10-03T09:13:17.806Z,82.20
2023-10-03T09:16:21.777Z,81.80
2023-10-03T09:19:45.572Z,80.60
2023-10-03T09:22:48.331Z,78.70
2023-10-03T09:25:57.119Z,79.90
2023-10-03T09:29:00.364Z,78.60
2023-10-03T09:32:14.954Z,78.00
2023-10-03T09:35:17.872Z,79.80
2023-10-03T09:38:26.444Z,77.70
2023-10-03T09:41:31.101Z,77.40
2023-10-03T09:44:33.291Z,79.20
2023-10-03T09:47:39.390Z,80.10
2023-10-03T09:50:52.986Z,76.70
2023-10-03T09:53:57.833Z,76.20
2023-10-03T09:57:02.152Z,75.90
2023-10-03T10:00:24.713Z,76.80
2023-10-03T10:03:34.808Z,75.60
2023-10-03T10:06:48.969Z,77.30
2023-10-03T10:10:08.900Z,76.90
2023-10-03T10:13:25.425Z,75.60
2023-10-03T10:16:29.736Z,75.70
2023-10-03T10:20:11.228Z,76.50
2023-10-03T10:23:13.876Z,75.20
2023-10-03T10:26:32.017Z,72.20
2023-10-03T10:29:37.102Z,73.20
2023-10-03T10:32:44.257Z,74.20
2023-10-03T10:36:01.240Z,74.10
2023-10-03T10:39:04.909Z,73.00
2023-10-03T10:42:11.372Z,74.30
2023-10-03T10:45:22.105Z,73.50
2023-10-03T10:48:47.599Z,72.30
2023-10-03T10:52:01.001Z,75.80
2023-10-03T10:55:06.776Z,74.70
2023-10-03T10:58:14.234Z,72.80
2023-10-03T11:01:18.287Z,74.60
2023-10-03T11:04:27.276Z,72.30
2023-10-03T11:07:30.869Z,72.20
2023-10-03T11:10:35.714Z,71.60
2023-10-03T11:13:57.965Z,71.40
2023-10-03T11:17:05.987Z,71.80
2023-10-03T11:20:13.544Z,71.90
2023-10-03T11:23:19.603Z,71.80
2023-10-03T11:26:22.170Z,71.50
2023-10-03T11:29:46.656Z,73.90
2023-10-03T11:32:49.881Z,71.60
2023-10-03T11:35:55.820Z,69.80
2023-10-03T11:39:03.770Z,68.80
2023-10-03T11:42:24.837Z,69.20
2023-10-03T11:45:31.766Z,69.30
2023-10-03T11:48:35.792Z,68.50
2023-10-03T11:51:44.116Z,66.70
2023-10-03T11:54:47.464Z,66.70
2023-10-03T11:57:50.940Z,69.40
2023-10-03T12:00:53.233Z,67.00
2023-10-03T12:03:55.848Z,63.70
2023-10-03T12:06:58.233Z,61.60
2023-10-03T12:10:00.837Z,61.60
2023-10-03T12:13:03.971Z,60.60
2023-10-03T12:16:06.231Z,59.20
2023-10-03T12:19:08.872Z,63.40
2023-10-03T12:22:11.911Z,62.50
2023-10-03T12:25:16.608Z,59.20
2023-10-03T12:28:18.918Z,62.10
2023-10-03T12:31:26.866Z,59.60
2023-10-03T12:34:31.281Z,60.90
2023-10-03T12:37:34.006Z,64.00
2023-10-03T12:40:36.347Z,60.10
2023-10-03T12:43:38.814Z,61.00
2023-10-03T12:46:41.266Z,59.40
2023-10-03T12:49:43.353Z,60.50
2023-10-03T12:52:45.641Z,58.60
2023-10-03T12:55:47.820Z,59.50
2023-10-03T12:58:50.214Z,60.00
2023-10-03T13:01:52.875Z,58.60
2023-10-03T13:04:55.245Z,57.90
2023-10-03T13:07:57.937Z,59.40
2023-10-03T13:11:02.598Z,60.40
2023-10-03T13:14:06.484Z,59.30
2023-10-03T13:17:10.780Z,59.60
2023-10-03T13:20:14.516Z,59.30
2023-10-03T13:23:16.602Z,61.20
2023-10-03T13:26:18.659Z,57.40
2023-10-03T13:29:21.589Z,57.70
2023-10-03T13:32:24.401Z,56.90
2023-10-03T13:35:27.242Z,57.60
2023-10-03T13:38:31.119Z,55.90
2023-10-03T13:41:35.693Z,55.70
2023-10-03T13:44:39.128Z,57.00
2023-10-03T13:47:43.061Z,55.30
2023-10-03T13:50:48.697Z,58.30
2023-10-03T13:53:51.518Z,55.40
2023-10-03T13:56:53.904Z,55.20
2023-10-03T13:59:56.529Z,55.00
2023-10-03T14:03:07.137Z,53.80
2023-10-03T14:06:16.618Z,55.50
2023-10-03T14:09:20.227Z,54.20
2023-10-03T14:12:22.899Z,54.80
2023-10-03T14:15:25.221Z,56.60
2023-10-03T14:18:27.649Z,54.40
2023-10-03T14:21:43.730Z,52.90
2023-10-03T14:24:49.100Z,53.50
2023-10-03T14:27:51.480Z,55.00
2023-10-03T14:30:54.563Z,55.40
2023-10-03T14:33:57.875Z,53.70
2023-10-03T14:36:59.917Z,55.00
2023-10-03T14:40:02.071Z,54.20
2023-10-03T14:43:04.882Z,55.10
2023-10-03T14:46:08.039Z,54.60
2023-10-03T14:49:11.633Z,54.90
2023-10-03T14:52:14.988Z,56.30
2023-10-03T14:55:23.819Z,55.90
2023-10-03T14:58:26.703Z,56.90
2023-10-03T15:01:29.129Z,57.10
2023-10-03T15:04:32.098Z,56.30
2023-10-03T15:07:35.926Z,56.80
2023-10-03T15:10:38.753Z,59.20
2023-10-03T15:13:41.036Z,57.80
2023-10-03T15:16:43.353Z,59.80
2023-10-03T15:19:45.686Z,59.10
2023-10-03T15:22:49.299Z,59.20
2023-10-03T15:25:52.859Z,59.90
2023-10-03T15:28:56.131Z,60.80
2023-10-03T15:31:58.269Z,62.80
2023-10-03T15:35:07.683Z,62.40
2023-10-03T15:38:09.900Z,65.10
2023-10-03T15:41:15.421Z,67.30
2023-10-03T15:44:19.352Z,69.20
2023-10-03T15:47:24.574Z,73.00
2023-10-03T15:50:28.376Z,75.80
2023-10-03T15:53:30.728Z,80.00
2023-10-03T15:56:34.048Z,83.80
2023-10-03T15:59:36.503Z,91.00
2023-10-03T16:02:39.976Z,96.10
2023-10-03T16:05:42.548Z,99.90
2023-10-03T16:08:45.842Z,99.90
2023-10-03T16:11:49.870Z,99.90
2023-10-03T16:14:52.224Z,99.90
2023-10-03T16:17:55.209Z,99.90
2023-10-03T16:20:57.936Z,99.90
2023-10-03T16:24:01.831Z,99.90
2023-10-03T16:27:04.785Z,99.90
2023-10-03T16:30:08.013Z,99.90
2023-10-03T16:33:12.214Z,99.90
2023-10-03T16:36:14.947Z,99.90
2023-10-03T16:39:17.158Z,99.90
2023-10-03T16:42:19.977Z,99.90
2023-10-03T16:45:23.041Z,99.90
2023-10-03T16:48:25.900Z,99.90
2023-10-03T16:51:28.842Z,99.90
2023-10-03T16:54:32.109Z,99.90
2023-10-03T16:57:35.004Z,99.90
2023-10-03T17:00:37.544Z,99.90
2023-10-03T17:03:40.402Z,99.90
2023-10-03T17:06:43.421Z,99.90
2023-10-03T17:09:47.005Z,99.90
2023-10-03T17:12:50.279Z,99.90
2023-10-03T17:15:53.718Z,99.90
2023-10-03T17:18:56.946Z,99.90
2023-10-03T17:22:00.454Z,99.90
2023-10-03T17:25:04.127Z,99.90
2023-10-03T17:28:07.455Z,99.90
2023-10-03T17:31:10.678Z,99.90
2023-10-03T17:34:14.590Z,99.90
2023-10-03T17:37:18.572Z,99.90
2023-10-03T17:40:27.348Z,99.90
2023-10-03T17:43:32.638Z,99.90
2023-10-03T17:46:36.253Z,99.90
2023-10-03T17:49:40.117Z,99.90
2023-10-03T17:52:45.073Z,99.90
2023-10-03T17:55:49.825Z,99.90
2023-10-03T17:58:53.087Z,99.90
2023-10-03T18:01:56.669Z,99.90
2023-10-03T18:05:00.554Z,99.90
2023-10-03T18:08:06.343Z,99.90
2023-10-03T18:11:10.622Z,99.90
2023-10-03T18:14:15.065Z,99.90
2023-10-03T18:17:20.145Z,99.90
2023-10-03T18:20:24.655Z,99.90
2023-10-03T18:23:31.681Z,99.90
2023-10-03T18:26:38.221Z,99.90
2023-10-03T18:29:42.471Z,99.90
2023-10-03T18:32:46.987Z,99.90
2023-10-03T18:35:51.613Z,99.90
2023-10-03T18:38:55.913Z,99.90
2023-10-03T18:42:00.092Z,99.90
2023-10-03T18:45:05.696Z,99.90
2023-10-03T18:48:11.318Z,99.90
2023-10-03T18:51:15.761Z,99.90
2023-10-03T18:54:19.869Z,99.90
2023-10-03T18:57:33.660Z,99.90
2023-10-03T19:00:39.367Z,99.90
2023-10-03T19:03:49.178Z,99.90
2023-10-03T19:06:55.637Z,99.90
2023-10-03T19:10:00.397Z,99.90
2023-10-03T19:13:05.620Z,99.90
2023-10-03T19:16:22.837Z,99.90
2023-10-03T19:19:30.544Z,99.90
2023-10-03T19:22:36.697Z,99.90
2023-10-03T19:25:47.813Z,99.90
2023-10-03T19:28:52.656Z,99.90
2023-10-03T19:31:59.122Z,99.90
2023-10-03T19:35:04.684Z,99.90
2023-10-03T19:38:13.117Z,99.90
2023-10-03T19:41:18.552Z,99.90
2023-10-03T19:44:29.243Z,99.90
2023-10-03T19:47:38.150Z,99.90
2023-10-03T19:50:46.961Z,99.90
2023-10-03T19:53:56.621Z,99.90
2023-10-03T19:57:03.899Z,99.90
2023-10-03T20:00:17.810Z,99.90
2023-10-03T20:03:25.174Z,99.90
2023-10-03T20:06:31.337Z,99.90
2023-10-03T20:09:36.438Z,99.90
2023-10-03T20:12:43.243Z,99.90
2023-10-03T20:15:48.302Z,99.90
2023-10-03T20:18:52.069Z,99.90
2023-10-03T20:21:55.403Z,99.90
2023-10-03T20:24:58.630Z,99.90
2023-10-03T20:28:02.439Z,99.90
2023-10-03T20:31:06.043Z,99.90
2023-10-03T20:34:10.889Z,99.90
2023-10-03T20:37:15.660Z,99.90
2023-10-03T20:40:18.807Z,99.90
2023-10-03T20:43:24.422Z,99.90
2023-10-03T20:46:26.629Z,99.90
2023-10-03T20:49:29.095Z,99.90
2023-10-03T20:52:31.561Z,99.90
2023-10-03T20:55:35.941Z,99.90
2023-10-03T20:58:38.143Z,99.90
2023-10-03T21:01:40.532Z,99.90
2023-10-03T21:04:43.951Z,99.90
2023-10-03T21:07:47.546Z,99.90
2023-10-03T21:10:49.584Z,99.90
2023-10-03T21:13:52.104Z,99.90
2023-10-03T21:16:54.296Z,99.90
2023-10-03T21:19:57.457Z,99.90
2023-10-03T21:22:59.816Z,99.90
2023-10-03T21:26:08.936Z,99.90
2023-10-03T21:29:11.236Z,99.90
2023-10-03T21:32:14.157Z,99.90
2023-10-03T21:35:19.222Z,99.90
2023-10-03T21:38:22.261Z,99.90
2023-10-03T21:41:24.741Z,99.90
2023-10-03T21:44:26.883Z,99.90
2023-10-03T21:47:29.288Z,99.90
2023-10-03T21:50:31.683Z,99.90
2023-10-03T21:53:36.538Z,99.90
2023-10-03T21:56:39.519Z,99.90
2023-10-03T21:59:41.925Z,99.90
2023-10-03T22:02:44.915Z,99.90
2023-10-03T22:05:47.632Z,99.90
2023-10-03T22:08:50.383Z,99.90
2023-10-03T22:11:53.188Z,99.90
2023-10-03T22:14:55.263Z,99.90
2023-10-03T22:17:58.030Z,99.90
2023-10-03T22:21:00.585Z,99.90
2023-10-03T22:24:03.078Z,99.90
2023-10-03T22:27:05.446Z,99.90
2023-10-03T22:30:10.122Z,99.90
2023-10-03T22:33:12.286Z,99.90
2023-10-03T22:36:15.057Z,99.90
2023-10-03T22:39:17.624Z,99.90
2023-10-03T22:42:20.018Z,99.90
2023-10-03T22:45:22.413Z,99.90
2023-10-03T22:48:24.831Z,99.90
2023-10-03T22:51:27.296Z,99.90
2023-10-03T22:54:29.744Z,99.90
2023-10-03T22:57:32.157Z,99.90
2023-10-03T23:00:34.775Z,99.90
2023-10-03T23:03:37.177Z,99.90
2023-10-03T23:06:39.630Z,99.90
2023-10-03T23:09:41.979Z,99.90
2023-10-03T23:12:44.764Z,99.90
2023-10-03T23:15:47.154Z,99.90
2023-10-03T23:18:49.357Z,99.90
2023-10-03T23:21:51.726Z,99.90
2023-10-03T23:24:54.161Z,99.90
2023-10-03T23:27:56.267Z,99.90
2023-10-03T23:30:58.305Z,99.90
2023-10-03T23:34:01.027Z,99.90
2023-10-03T23:37:04.500Z,99.90
2023-10-03T23:40:14.776Z,99.90
2023-10-03T23:43:18.801Z,99.90
2023-10-03T23:46:23.338Z,99.90
2023-10-03T23:49:25.798Z,99.90
2023-10-03T23:52:27.923Z,99.90
2023-10-03T23:55:31.357Z,99.90
2023-10-03T23:58:35.232Z,99.90
